createdAt,value
2024-03-12T00:01:48.038Z,60.74
2024-03-12T00:04:17.868Z,60.67
2024-03-12T00:06:46.109Z,60.65
2024-03-12T00:09:14.470Z,60.98
2024-03-12T00:11:43.495Z,61.44
2024-03-12T00:14:11.796Z,61.67
2024-03-12T00:16:41.902Z,61.55
2024-03-12T00:19:10.673Z,61.71
2024-03-12T00:21:38.950Z,61.76
2024-03-12T00:24:07.005Z,61.92
2024-03-12T00:26:35.225Z,62.29
2024-03-12T00:29:03.336Z,61.96
2024-03-12T00:31:32.496Z,61.78
2024-03-12T00:34:01.790Z,62.22
2024-03-12T00:36:30.521Z,62.09
2024-03-12T00:38:59.016Z,62.42
2024-03-12T00:41:27.252Z,62.67
2024-03-12T00:43:55.538Z,62.84
2024-03-12T00:46:23.661Z,62.86
2024-03-12T00:48:51.929Z,62.58
2024-03-12T00:51:20.576Z,62.52
2024-03-12T00:53:48.795Z,62.59
2024-03-12T00:56:17.973Z,62.80
2024-03-12T00:58:46.029Z,62.65
2024-03-12T01:01:16.635Z,62.43
2024-03-12T01:03:47.909Z,62.36
2024-03-12T01:06:16.712Z,62.49
2024-03-12T01:08:44.761Z,62.52
2024-03-12T01:11:14.298Z,62.57
2024-03-12T01:13:42.831Z,62.45
2024-03-12T01:16:11.326Z,62.74
2024-03-12T01:18:39.758Z,63.17
2024-03-12T01:21:09.395Z,63.25
2024-03-12T01:23:38.191Z,63.40
2024-03-12T01:26:08.487Z,63.57
2024-03-12T01:28:36.710Z,63.69
2024-03-12T01:31:04.749Z,64.08
2024-03-12T01:33:32.926Z,64.42
2024-03-12T01:36:19.506Z,64.67
2024-03-12T01:38:55.962Z,65.00
2024-03-12T01:41:24.429Z,65.26
2024-03-12T01:44:00.711Z,65.63
2024-03-12T01:46:32.421Z,65.83
2024-03-12T01:49:00.770Z,66.07
2024-03-12T01:51:29.276Z,66.17
2024-03-12T01:53:57.796Z,66.35
2024-03-12T01:56:26.305Z,66.33
2024-03-12T01:58:54.964Z,66.32
2024-03-12T02:01:24.180Z,66.36
2024-03-12T02:03:56.177Z,66.28
2024-03-12T02:06:24.970Z,66.40
2024-03-12T02:08:54.500Z,66.38
2024-03-12T02:11:22.638Z,66.35
2024-03-12T02:13:52.449Z,66.38
2024-03-12T02:16:20.847Z,66.37
2024-03-12T02:18:49.178Z,66.24
2024-03-12T02:21:17.514Z,65.85
2024-03-12T02:23:45.702Z,65.68
2024-03-12T02:26:13.903Z,65.63
2024-03-12T02:28:42.796Z,65.58
2024-03-12T02:31:11.026Z,65.54
2024-03-12T02:33:39.191Z,65.31
2024-03-12T02:36:07.784Z,64.81
2024-03-12T02:38:39.681Z,64.75
2024-03-12T02:41:08.908Z,64.81
2024-03-12T02:43:37.834Z,64.65
2024-03-12T02:46:06.065Z,64.76
2024-03-12T02:48:34.378Z,64.67
2024-03-12T02:51:02.512Z,64.64
2024-03-12T02:53:30.704Z,64.68
2024-03-12T02:55:58.659Z,64.58
2024-03-12T02:58:27.448Z,64.73
2024-03-12T03:00:56.908Z,64.71
2024-03-12T03:03:25.055Z,64.87
2024-03-12T03:05:54.057Z,64.91
2024-03-12T03:08:22.505Z,64.98
2024-03-12T03:10:50.597Z,65.05
2024-03-12T03:13:18.685Z,65.06
2024-03-12T03:15:47.174Z,64.97
2024-03-12T03:18:15.486Z,65.16
2024-03-12T03:20:43.734Z,65.38
2024-03-12T03:23:11.968Z,65.60
2024-03-12T03:25:40.018Z,65.46
2024-03-12T03:28:08.213Z,65.82
2024-03-12T03:30:36.777Z,66.12
2024-03-12T03:33:08.933Z,66.06
2024-03-12T03:35:37.259Z,66.02
2024-03-12T03:38:07.206Z,66.23
2024-03-12T03:40:35.216Z,66.54
2024-03-12T03:43:03.287Z,66.83
2024-03-12T03:45:31.336Z,66.98
2024-03-12T03:47:59.427Z,67.06
2024-03-12T03:50:27.731Z,66.99
2024-03-12T03:52:55.834Z,67.31
2024-03-12T03:55:24.353Z,67.40
2024-03-12T03:57:53.850Z,67.39
2024-03-12T04:00:25.216Z,67.62
2024-03-12T04:02:53.534Z,67.69
2024-03-12T04:05:22.591Z,67.62
2024-03-12T04:07:50.951Z,67.59
2024-03-12T04:10:19.432Z,67.75
2024-03-12T04:12:47.910Z,67.78
2024-03-12T04:15:16.161Z,67.87
2024-03-12T04:17:45.818Z,68.02
2024-03-12T04:20:17.978Z,68.00
2024-03-12T04:22:46.342Z,68.17
2024-03-12T04:25:17.008Z,68.25
2024-03-12T04:27:46.789Z,68.39
2024-03-12T04:30:15.312Z,68.60
2024-03-12T04:32:43.782Z,68.84
2024-03-12T04:35:14.296Z,69.09
2024-03-12T04:37:42.639Z,68.94
2024-03-12T04:40:12.896Z,68.92
2024-03-12T04:42:44.773Z,68.83
2024-03-12T04:45:13.246Z,68.88
2024-03-12T04:47:43.393Z,68.96
2024-03-12T04:50:15.698Z,69.02
2024-03-12T04:52:44.210Z,68.91
2024-03-12T04:55:14.676Z,69.12
2024-03-12T04:57:43.482Z,69.16
2024-03-12T05:00:16.511Z,69.29
2024-03-12T05:02:48.490Z,69.41
2024-03-12T05:05:20.648Z,69.55
2024-03-12T05:07:49.425Z,69.23
2024-03-12T05:10:18.506Z,69.27
2024-03-12T05:12:46.967Z,69.27
2024-03-12T05:15:15.606Z,69.08
2024-03-12T05:17:44.257Z,68.93
2024-03-12T05:20:16.000Z,69.07
2024-03-12T05:22:45.572Z,69.21
2024-03-12T05:25:40.641Z,69.28
2024-03-12T05:28:10.682Z,69.21
2024-03-12T05:30:42.281Z,69.24
2024-03-12T05:33:13.615Z,69.11
2024-03-12T05:35:48.685Z,69.20
2024-03-12T05:38:31.785Z,69.40
2024-03-12T05:41:10.065Z,70.36
2024-03-12T05:43:57.472Z,70.70
2024-03-12T05:46:48.375Z,70.97
2024-03-12T05:49:17.175Z,71.00
2024-03-12T05:51:45.673Z,70.83
2024-03-12T05:54:13.779Z,70.83
2024-03-12T05:56:41.988Z,71.13
2024-03-12T05:59:10.138Z,71.09
2024-03-12T06:01:38.541Z,71.37
2024-03-12T06:04:06.837Z,71.66
2024-03-12T06:06:35.213Z,71.56
2024-03-12T06:09:03.939Z,71.41
2024-03-12T06:11:32.847Z,71.39
2024-03-12T06:14:04.248Z,71.42
2024-03-12T06:16:33.669Z,71.32
2024-03-12T06:19:04.290Z,71.37
2024-03-12T06:21:33.967Z,71.10
2024-03-12T06:24:02.258Z,71.01
2024-03-12T06:26:31.134Z,70.91
2024-03-12T06:28:59.667Z,70.84
2024-03-12T06:31:27.829Z,70.84
2024-03-12T06:33:56.249Z,70.89
2024-03-12T06:36:24.419Z,70.66
2024-03-12T06:38:53.422Z,70.64
2024-03-12T06:41:22.064Z,70.09
2024-03-12T06:43:50.148Z,70.12
2024-03-12T06:46:21.010Z,70.22
2024-03-12T06:48:49.681Z,70.55
2024-03-12T06:51:17.872Z,70.95
2024-03-12T06:53:46.178Z,70.97
2024-03-12T06:56:17.382Z,70.88
2024-03-12T06:58:49.444Z,70.97
2024-03-12T07:01:20.817Z,70.98
2024-03-12T07:03:53.139Z,70.85
2024-03-12T07:06:22.893Z,71.17
2024-03-12T07:08:52.126Z,71.26
2024-03-12T07:11:20.569Z,71.12
2024-03-12T07:13:50.757Z,71.33
2024-03-12T07:16:21.259Z,71.69
2024-03-12T07:18:49.889Z,71.71
2024-03-12T07:21:18.202Z,71.66
2024-03-12T07:23:46.222Z,71.33
2024-03-12T07:26:14.538Z,70.80
2024-03-12T07:28:46.433Z,70.88
2024-03-12T07:31:15.526Z,70.80
2024-03-12T07:33:44.852Z,70.52
2024-03-12T07:36:14.142Z,70.18
2024-03-12T07:38:43.222Z,69.78
2024-03-12T07:41:11.808Z,69.07
2024-03-12T07:43:40.961Z,69.05
2024-03-12T07:46:09.077Z,69.01
2024-03-12T07:48:38.092Z,68.53
2024-03-12T07:51:10.359Z,68.45
2024-03-12T07:53:38.446Z,69.09
2024-03-12T07:56:07.786Z,68.94
2024-03-12T07:58:36.792Z,68.81
2024-03-12T08:01:05.012Z,68.35
2024-03-12T08:03:33.547Z,67.59
2024-03-12T08:06:01.734Z,67.60
2024-03-12T08:08:32.895Z,67.91
2024-03-12T08:11:01.267Z,67.73
2024-03-12T08:13:29.838Z,67.49
2024-03-12T08:15:58.025Z,67.51
2024-03-12T08:18:27.703Z,67.30
2024-03-12T08:20:55.956Z,66.68
2024-03-12T08:23:25.149Z,66.85
2024-03-12T08:25:56.736Z,67.18
2024-03-12T08:28:31.054Z,67.24
2024-03-12T08:31:02.714Z,67.33
2024-03-12T08:33:36.804Z,67.53
2024-03-12T08:36:05.683Z,67.29
2024-03-12T08:38:34.354Z,66.77
2024-03-12T08:41:02.589Z,65.86
2024-03-12T08:43:30.601Z,65.63
2024-03-12T08:45:59.887Z,65.04
2024-03-12T08:48:28.201Z,63.72
2024-03-12T08:50:57.437Z,62.91
2024-03-12T08:53:25.833Z,61.46
2024-03-12T08:55:54.040Z,61.17
2024-03-12T08:58:22.701Z,60.54
2024-03-12T09:00:50.843Z,60.09
2024-03-12T09:03:19.406Z,59.79
2024-03-12T09:05:47.695Z,59.46
2024-03-12T09:08:18.361Z,59.19
2024-03-12T09:10:49.335Z,58.80
2024-03-12T09:13:17.927Z,58.08
2024-03-12T09:15:47.088Z,57.91
2024-03-12T09:18:23.574Z,57.93
2024-03-12T09:20:56.388Z,57.03
2024-03-12T09:23:24.855Z,56.11
2024-03-12T09:25:52.918Z,56.28
2024-03-12T09:28:22.614Z,57.65
2024-03-12T09:30:50.777Z,56.51
2024-03-12T09:33:19.965Z,56.11
2024-03-12T09:35:50.140Z,54.98
2024-03-12T09:38:18.208Z,54.68
2024-03-12T09:40:51.886Z,55.36
2024-03-12T09:43:25.450Z,54.55
2024-03-12T09:45:53.922Z,53.37
2024-03-12T09:48:23.392Z,53.16
2024-03-12T09:50:51.603Z,53.67
2024-03-12T09:53:22.130Z,54.52
2024-03-12T09:55:50.097Z,54.47
2024-03-12T09:58:18.257Z,53.96
2024-03-12T10:00:47.544Z,54.15
2024-03-12T10:03:20.874Z,54.29
2024-03-12T10:05:49.007Z,53.03
2024-03-12T10:08:19.081Z,51.42
2024-03-12T10:10:49.384Z,51.51
2024-03-12T10:13:19.116Z,51.66
2024-03-12T10:15:58.306Z,51.57
2024-03-12T10:18:31.535Z,51.07
2024-03-12T10:21:04.071Z,51.45
2024-03-12T10:23:37.110Z,51.35
2024-03-12T10:26:12.729Z,50.65
2024-03-12T10:28:41.301Z,49.88
2024-03-12T10:31:12.261Z,50.66
2024-03-12T10:33:49.668Z,51.10
2024-03-12T10:36:32.690Z,49.76
2024-03-12T10:39:01.250Z,48.79
2024-03-12T10:41:29.841Z,47.85
2024-03-12T10:44:08.797Z,47.92
2024-03-12T10:46:48.632Z,47.85
2024-03-12T10:49:18.843Z,47.93
2024-03-12T10:51:47.475Z,47.29
2024-03-12T10:54:17.989Z,47.35
2024-03-12T10:56:47.640Z,47.26
2024-03-12T10:59:17.782Z,47.54
2024-03-12T11:01:46.457Z,47.35
2024-03-12T11:04:16.199Z,46.63
2024-03-12T11:06:46.666Z,46.09
2024-03-12T11:09:22.568Z,46.54
2024-03-12T11:11:51.120Z,46.46
2024-03-12T11:14:20.271Z,46.22
2024-03-12T11:16:48.942Z,45.55
2024-03-12T11:19:24.720Z,45.33
2024-03-12T11:21:53.912Z,44.80
2024-03-12T11:24:48.999Z,45.11
2024-03-12T11:27:28.214Z,45.92
2024-03-12T11:30:06.396Z,45.99
2024-03-12T11:32:35.598Z,45.65
2024-03-12T11:35:12.299Z,45.72
2024-03-12T11:37:40.544Z,46.08
2024-03-12T11:40:41.321Z,45.61
2024-03-12T11:43:12.546Z,45.07
2024-03-12T11:45:44.047Z,44.84
2024-03-12T11:48:14.634Z,44.17
2024-03-12T11:50:45.843Z,44.73
2024-03-12T11:53:24.754Z,44.97
2024-03-12T11:56:12.006Z,45.38
2024-03-12T11:58:45.344Z,45.96
2024-03-12T12:01:22.150Z,45.52
2024-03-12T12:04:05.259Z,44.89
2024-03-12T12:06:34.394Z,45.03
2024-03-12T12:09:07.332Z,45.16
2024-03-12T12:11:40.295Z,45.99
2024-03-12T12:14:10.271Z,46.46
2024-03-12T12:16:40.353Z,46.62
2024-03-12T12:19:13.378Z,46.73
2024-03-12T12:21:45.040Z,46.59
2024-03-12T12:24:15.118Z,46.78
2024-03-12T12:26:45.842Z,45.76
2024-03-12T12:29:15.866Z,45.79
2024-03-12T12:31:44.461Z,45.90
2024-03-12T12:34:14.052Z,45.94
2024-03-12T12:36:46.124Z,45.72
2024-03-12T12:39:18.395Z,45.68
2024-03-12T12:41:47.796Z,46.30
2024-03-12T12:44:18.465Z,46.17
2024-03-12T12:46:53.522Z,45.24
2024-03-12T12:49:23.750Z,44.82
2024-03-12T12:51:54.055Z,44.24
2024-03-12T12:54:23.410Z,43.83
2024-03-12T12:56:52.528Z,43.21
2024-03-12T12:59:24.616Z,42.76
2024-03-12T13:01:53.659Z,41.54
2024-03-12T13:04:23.839Z,41.42
2024-03-12T13:06:56.128Z,41.97
2024-03-12T13:09:33.707Z,42.21
2024-03-12T13:12:03.828Z,41.54
2024-03-12T13:14:32.838Z,41.78
2024-03-12T13:17:01.267Z,41.10
2024-03-12T13:19:29.670Z,40.60
2024-03-12T13:22:00.615Z,40.29
2024-03-12T13:24:30.961Z,40.18
2024-03-12T13:26:59.625Z,39.73
2024-03-12T13:29:29.709Z,39.29
2024-03-12T13:31:58.225Z,38.97
2024-03-12T13:34:28.507Z,38.93
2024-03-12T13:36:57.872Z,39.80
2024-03-12T13:39:26.202Z,39.69
2024-03-12T13:41:55.550Z,39.33
2024-03-12T13:44:23.946Z,38.81
2024-03-12T13:46:52.050Z,38.80
2024-03-12T13:49:24.287Z,39.44
2024-03-12T13:51:53.760Z,39.15
2024-03-12T13:54:22.226Z,39.33
2024-03-12T13:56:50.398Z,39.42
2024-03-12T13:59:19.990Z,39.77
2024-03-12T14:01:48.867Z,39.36
2024-03-12T14:04:19.406Z,38.88
2024-03-12T14:06:48.842Z,39.20
2024-03-12T14:09:18.597Z,38.76
2024-03-12T14:11:47.758Z,38.75
2024-03-12T14:14:16.020Z,39.10
2024-03-12T14:16:45.106Z,38.82
2024-03-12T14:19:13.630Z,38.79
2024-03-12T14:21:42.249Z,38.82
2024-03-12T14:24:10.417Z,38.95
2024-03-12T14:26:38.533Z,39.15
2024-03-12T14:29:07.484Z,39.62
2024-03-12T14:31:35.637Z,39.61
2024-03-12T14:34:05.506Z,39.62
2024-03-12T14:36:33.775Z,39.54
2024-03-12T14:39:02.103Z,39.80
2024-03-12T14:41:30.184Z,40.64
2024-03-12T14:43:58.264Z,40.78
2024-03-12T14:46:26.516Z,40.41
2024-03-12T14:48:56.208Z,40.50
2024-03-12T14:51:24.760Z,40.75
2024-03-12T14:53:52.988Z,41.10
2024-03-12T14:56:21.902Z,41.47
2024-03-12T14:58:50.153Z,41.71
2024-03-12T15:01:18.606Z,41.79
2024-03-12T15:03:46.926Z,42.35
2024-03-12T15:06:15.412Z,42.19
2024-03-12T15:08:44.711Z,41.80
2024-03-12T15:11:13.147Z,41.38
2024-03-12T15:13:41.227Z,41.84
2024-03-12T15:16:09.319Z,41.29
2024-03-12T15:18:38.417Z,41.33
2024-03-12T15:21:08.529Z,41.70
2024-03-12T15:23:36.879Z,42.08
2024-03-12T15:26:06.532Z,42.68
2024-03-12T15:28:34.761Z,43.42
2024-03-12T15:31:05.182Z,43.12
2024-03-12T15:33:34.191Z,42.94
2024-03-12T15:36:02.584Z,43.17
2024-03-12T15:38:30.953Z,43.29
2024-03-12T15:40:59.111Z,43.17
2024-03-12T15:43:27.388Z,42.96
2024-03-12T15:45:55.699Z,42.51
2024-03-12T15:48:26.541Z,42.98
2024-03-12T15:50:55.720Z,42.82
2024-03-12T15:53:24.707Z,42.50
2024-03-12T15:55:54.889Z,42.77
2024-03-12T15:58:27.327Z,43.13
2024-03-12T16:00:55.909Z,43.52
2024-03-12T16:03:25.057Z,43.74
2024-03-12T16:05:53.499Z,44.01
2024-03-12T16:08:21.538Z,44.44
2024-03-12T16:10:52.924Z,44.75
2024-03-12T16:13:22.991Z,44.95
2024-03-12T16:15:53.308Z,45.49
2024-03-12T16:18:22.432Z,45.48
2024-03-12T16:20:51.467Z,45.50
2024-03-12T16:23:19.685Z,45.86
2024-03-12T16:25:47.839Z,45.66
2024-03-12T16:28:15.954Z,45.28
2024-03-12T16:30:44.175Z,46.04
2024-03-12T16:33:12.668Z,46.49
2024-03-12T16:35:41.504Z,46.78
2024-03-12T16:38:09.928Z,46.65
2024-03-12T16:40:38.554Z,46.22
2024-03-12T16:43:06.874Z,46.08
2024-03-12T16:45:35.982Z,46.37
2024-03-12T16:48:06.758Z,46.53
2024-03-12T16:50:34.920Z,46.96
2024-03-12T16:53:03.607Z,47.52
2024-03-12T16:55:33.468Z,48.16
2024-03-12T16:58:02.215Z,48.40
2024-03-12T17:00:31.187Z,48.85
2024-03-12T17:02:59.653Z,49.02
2024-03-12T17:05:29.281Z,49.40
2024-03-12T17:07:59.531Z,49.55
2024-03-12T17:10:28.721Z,49.65
2024-03-12T17:12:57.159Z,49.89
2024-03-12T17:15:25.443Z,49.78
2024-03-12T17:17:54.325Z,49.94
2024-03-12T17:20:22.573Z,50.01
2024-03-12T17:22:52.046Z,50.67
2024-03-12T17:25:20.871Z,50.98
2024-03-12T17:27:52.987Z,50.88
2024-03-12T17:30:25.899Z,50.93
2024-03-12T17:32:56.495Z,51.15
2024-03-12T17:35:25.125Z,51.18
2024-03-12T17:37:59.405Z,51.01
2024-03-12T17:40:28.915Z,50.99
2024-03-12T17:43:01.245Z,51.06
2024-03-12T17:45:29.745Z,51.57
2024-03-12T17:47:58.624Z,51.93
2024-03-12T17:50:31.842Z,52.63
2024-03-12T17:53:03.277Z,52.60
2024-03-12T17:55:32.124Z,52.77
2024-03-12T17:58:01.513Z,53.13
2024-03-12T18:00:30.979Z,53.16
2024-03-12T18:03:00.478Z,53.03
2024-03-12T18:05:29.480Z,52.89
2024-03-12T18:07:59.952Z,53.07
2024-03-12T18:10:28.759Z,53.16
2024-03-12T18:12:57.110Z,54.05
2024-03-12T18:15:25.683Z,54.75
2024-03-12T18:17:54.194Z,54.95
2024-03-12T18:20:31.188Z,55.10
2024-03-12T18:23:00.018Z,54.97
2024-03-12T18:25:31.708Z,54.91
2024-03-12T18:27:59.905Z,55.16
2024-03-12T18:30:28.573Z,55.05
2024-03-12T18:32:56.888Z,55.02
2024-03-12T18:35:25.592Z,55.10
2024-03-12T18:37:53.920Z,55.13
2024-03-12T18:40:23.756Z,55.14
2024-03-12T18:42:52.627Z,55.08
2024-03-12T18:45:23.869Z,54.97
2024-03-12T18:47:54.408Z,55.24
2024-03-12T18:50:25.676Z,55.25
2024-03-12T18:52:54.877Z,55.38
2024-03-12T18:55:23.343Z,55.47
2024-03-12T18:57:52.108Z,55.63
2024-03-12T19:00:21.422Z,55.69
2024-03-12T19:02:55.029Z,55.85
2024-03-12T19:05:25.588Z,55.88
2024-03-12T19:07:56.018Z,55.96
2024-03-12T19:10:30.131Z,56.20
2024-03-12T19:12:59.736Z,56.39
2024-03-12T19:15:36.754Z,56.52
2024-03-12T19:18:13.711Z,56.54
2024-03-12T19:20:42.168Z,56.60
2024-03-12T19:23:10.828Z,56.64
2024-03-12T19:25:38.916Z,56.80
2024-03-12T19:28:08.913Z,56.82
2024-03-12T19:30:37.591Z,56.91
2024-03-12T19:33:06.383Z,56.85
2024-03-12T19:35:37.583Z,56.93
2024-03-12T19:38:06.831Z,56.95
2024-03-12T19:40:35.250Z,57.13
2024-03-12T19:43:04.229Z,57.10
2024-03-12T19:45:32.554Z,57.21
2024-03-12T19:48:01.718Z,57.31
2024-03-12T19:50:30.435Z,57.33
2024-03-12T19:52:58.552Z,57.29
2024-03-12T19:55:30.593Z,57.39
2024-03-12T19:58:01.800Z,57.63
2024-03-12T20:00:35.542Z,57.83
2024-03-12T20:03:12.117Z,57.82
2024-03-12T20:05:41.923Z,58.06
2024-03-12T20:08:10.901Z,58.31
2024-03-12T20:10:40.080Z,58.28
2024-03-12T20:13:10.595Z,58.18
2024-03-12T20:15:44.430Z,58.31
2024-03-12T20:18:13.540Z,58.37
2024-03-12T20:20:44.472Z,58.27
2024-03-12T20:23:12.985Z,58.44
2024-03-12T20:25:41.563Z,58.65
2024-03-12T20:28:11.077Z,58.66
2024-03-12T20:30:40.801Z,58.63
2024-03-12T20:33:12.055Z,58.89
2024-03-12T20:35:40.174Z,59.08
2024-03-12T20:38:10.073Z,59.49
2024-03-12T20:40:38.986Z,59.63
2024-03-12T20:43:07.666Z,59.51
2024-03-12T20:45:39.113Z,59.54
2024-03-12T20:48:11.757Z,59.70
2024-03-12T20:50:41.326Z,59.92
2024-03-12T20:53:11.634Z,60.19
2024-03-12T20:55:40.273Z,60.48
2024-03-12T20:58:08.640Z,60.83
2024-03-12T21:00:39.151Z,60.85
2024-03-12T21:03:11.069Z,60.73
2024-03-12T21:05:40.246Z,61.02
2024-03-12T21:08:08.786Z,61.10
2024-03-12T21:10:39.156Z,61.21
2024-03-12T21:13:07.450Z,61.41
2024-03-12T21:15:36.042Z,61.64
2024-03-12T21:18:07.361Z,61.84
2024-03-12T21:20:36.150Z,61.87
2024-03-12T21:23:05.077Z,61.90
2024-03-12T21:25:35.677Z,62.08
2024-03-12T21:28:04.290Z,61.91
2024-03-12T21:30:32.825Z,61.96
2024-03-12T21:33:01.290Z,61.99
2024-03-12T21:35:30.120Z,62.11
2024-03-12T21:37:58.763Z,62.56
2024-03-12T21:40:27.974Z,62.82
2024-03-12T21:42:56.287Z,63.02
2024-03-12T21:45:24.357Z,63.01
2024-03-12T21:47:53.883Z,63.25
2024-03-12T21:50:22.213Z,63.23
2024-03-12T21:52:50.528Z,63.23
2024-03-12T21:55:18.623Z,63.20
2024-03-12T21:57:46.916Z,63.13
2024-03-12T22:00:25.361Z,63.19
2024-03-12T22:02:53.685Z,63.25
2024-03-12T22:05:21.996Z,63.32
2024-03-12T22:07:50.708Z,63.23
2024-03-12T22:10:19.772Z,63.46
2024-03-12T22:12:48.654Z,63.42
2024-03-12T22:15:17.180Z,63.62
2024-03-12T22:17:46.944Z,63.82
2024-03-12T22:20:20.032Z,64.03
2024-03-12T22:22:52.226Z,63.99
2024-03-12T22:25:22.156Z,63.95
2024-03-12T22:27:50.857Z,63.84
2024-03-12T22:30:19.228Z,64.29
2024-03-12T22:32:48.311Z,64.29
2024-03-12T22:35:16.938Z,64.13
2024-03-12T22:37:48.985Z,64.14
2024-03-12T22:40:19.928Z,64.20
2024-03-12T22:42:49.472Z,64.32
2024-03-12T22:45:18.066Z,64.44
2024-03-12T22:47:46.483Z,64.47
2024-03-12T22:50:15.488Z,64.44
2024-03-12T22:52:47.332Z,64.45
2024-03-12T22:55:16.752Z,64.50
2024-03-12T22:57:46.249Z,64.61
2024-03-12T23:00:30.212Z,64.65
2024-03-12T23:03:03.477Z,64.56
2024-03-12T23:05:35.992Z,64.55
2024-03-12T23:08:09.425Z,64.69
2024-03-12T23:10:42.506Z,64.74
2024-03-12T23:13:11.254Z,64.76
2024-03-12T23:15:40.040Z,64.76
2024-03-12T23:18:12.845Z,64.88
2024-03-12T23:20:41.741Z,64.96
2024-03-12T23:23:10.037Z,64.96
2024-03-12T23:25:38.331Z,65.11
2024-03-12T23:28:06.576Z,65.10
2024-03-12T23:30:34.871Z,65.28
2024-03-12T23:33:03.413Z,65.47
2024-03-12T23:35:34.139Z,65.59
2024-03-12T23:38:03.675Z,65.61
2024-03-12T23:40:32.040Z,65.54
2024-03-12T23:43:00.246Z,65.61
2024-03-12T23:45:28.305Z,65.76
2024-03-12T23:47:58.626Z,66.11
2024-03-12T23:50:26.969Z,66.18
2024-03-12T23:52:55.898Z,66.12
2024-03-12T23:55:25.702Z,66.48
2024-03-12T23:57:54.570Z,66.44
